Time;durP1;ratioP1;P1;durP2;ratioP2;P2;SDS_P1;SDS_P2;PMS_P1;PMS_P2;Temp;Humidity;BMP_temperature;BMP_pressure;BME280_temperature;BME280_humidity;BME280_pressure;Samples;Min_cycle;Max_cycle;Signal;HPM_P1;HPM_P2
2023/06/26 00:01:33;;;;;;;1999.90;999.90;;;;;;;19.04;100.00;98009.38;5000419;28;20057;-75
2023/06/26 00:03:59;;;;;;;1999.90;999.90;;;;;;;18.99;100.00;98019.88;4995901;28;20030;-75
2023/06/26 00:06:25;;;;;;;1999.90;999.90;;;;;;;18.89;100.00;98012.84;4994441;28;20037;-77
2023/06/26 00:08:52;;;;;;;1999.90;999.90;;;;;;;18.86;100.00;98007.22;4996131;28;20062;-75
2023/06/26 00:11:18;;;;;;;1999.90;999.90;;;;;;;18.80;100.00;98012.16;4993627;28;20483;-74
2023/06/26 00:13:43;;;;;;;1999.90;999.90;;;;;;;18.72;100.00;97999.25;4993826;28;20026;-76
2023/06/26 00:16:09;;;;;;;1999.90;999.90;;;;;;;18.75;100.00;98006.88;4993824;28;20126;-75
2023/06/26 00:18:34;;;;;;;1999.90;999.90;;;;;;;18.75;100.00;98009.63;4993658;28;20464;-75
2023/06/26 00:20:59;;;;;;;1999.90;999.90;;;;;;;18.76;100.00;98000.19;4993624;28;20087;-76
2023/06/26 00:23:25;;;;;;;1999.90;999.90;;;;;;;18.71;100.00;98006.75;4993445;28;20462;-76
2023/06/26 00:25:50;;;;;;;1999.90;999.90;;;;;;;18.63;100.00;98004.91;4993527;28;20034;-77
2023/06/26 00:28:15;;;;;;;1999.90;999.90;;;;;;;18.52;100.00;98002.94;4993687;28;20030;-75
2023/06/26 00:30:40;;;;;;;1999.90;999.90;;;;;;;18.51;100.00;97998.56;4993619;28;20030;-75
2023/06/26 00:33:06;;;;;;;1999.90;999.90;;;;;;;18.54;100.00;98000.66;4993334;28;20034;-77
2023/06/26 00:35:31;;;;;;;1999.90;999.90;;;;;;;18.58;100.00;97996.00;4993496;28;20049;-75
2023/06/26 00:37:56;;;;;;;1999.90;999.90;;;;;;;18.74;100.00;98008.00;4984806;28;20123;-74
2023/06/26 00:40:22;;;;;;;1999.90;999.90;;;;;;;18.78;100.00;98003.41;4956475;28;20046;-75
2023/06/26 00:42:47;;;;;;;1999.90;999.90;;;;;;;18.73;100.00;98003.66;4973620;28;20023;-77
2023/06/26 00:45:12;;;;;;;1999.90;999.90;;;;;;;18.68;100.00;98001.91;4973716;28;20030;-78
2023/06/26 00:47:38;;;;;;;1999.90;999.90;;;;;;;18.76;100.00;98004.91;4973231;28;20038;-76
2023/06/26 00:50:04;;;;;;;1999.90;999.90;;;;;;;18.84;100.00;98007.56;4973523;28;20403;-76
2023/06/26 00:52:31;;;;;;;1999.90;999.90;;;;;;;18.85;100.00;98005.59;4973449;28;20029;-75
2023/06/26 00:54:57;;;;;;;1999.90;999.90;;;;;;;18.71;100.00;98003.16;4973449;28;20033;-75
2023/06/26 00:57:24;;;;;;;1999.90;999.90;;;;;;;18.56;100.00;97999.13;4973595;28;20117;-75
2023/06/26 00:59:50;;;;;;;1999.90;999.90;;;;;;;18.49;100.00;98004.44;4973511;28;20093;-76
2023/06/26 01:02:19;;;;;;;1999.90;999.90;;;;;;;18.52;100.00;98002.94;4972672;28;20041;-76
2023/06/26 01:04:49;;;;;;;1999.90;999.90;;;;;;;18.51;100.00;98004.09;4973313;28;20037;-75
2023/06/26 01:07:18;;;;;;;1999.90;999.90;;;;;;;18.40;100.00;97994.59;4973100;28;20488;-75
2023/06/26 01:09:44;;;;;;;1999.90;999.90;;;;;;;18.21;100.00;97989.59;4973491;28;20058;-76
2023/06/26 01:12:10;;;;;;;1999.90;999.90;;;;;;;18.19;100.00;97992.75;4984876;28;20038;-75
2023/06/26 01:14:36;;;;;;;1999.90;999.90;;;;;;;18.14;100.00;97997.66;4994036;28;20011;-75
2023/06/26 01:17:02;;;;;;;1999.90;999.90;;;;;;;18.20;100.00;97997.09;4994629;28;20057;-75
2023/06/26 01:19:30;;;;;;;1999.90;999.90;;;;;;;18.21;100.00;97992.38;4993342;28;20022;-74
2023/06/26 01:22:15;;;;;;;1999.90;999.90;;;;;;;18.36;100.00;97999.19;4992417;28;20034;-75
2023/06/26 01:24:51;;;;;;;1999.90;999.90;;;;;;;18.22;100.00;97993.19;4992435;28;20085;-75
2023/06/26 01:27:21;;;;;;;1999.90;999.90;;;;;;;18.11;100.00;97993.63;4992172;28;20030;-75
2023/06/26 01:29:48;;;;;;;1999.90;999.90;;;;;;;18.10;100.00;97986.50;4992511;28;20058;-74
2023/06/26 01:32:14;;;;;;;1999.90;999.90;;;;;;;18.05;100.00;97994.19;4992442;28;20031;-75
2023/06/26 01:34:39;;;;;;;1999.90;999.90;;;;;;;17.91;100.00;97993.72;4992598;28;20471;-77
2023/06/26 01:37:05;;;;;;;1999.90;999.90;;;;;;;18.02;100.00;97986.56;4992269;28;20073;-77
2023/06/26 01:39:30;;;;;;;1999.90;999.90;;;;;;;17.93;100.00;97983.09;4992722;28;20427;-75
2023/06/26 01:41:55;;;;;;;1999.90;999.90;;;;;;;17.87;100.00;97982.50;4992358;28;20458;-77
2023/06/26 01:44:29;;;;;;;1999.90;999.90;;;;;;;17.73;100.00;97983.97;4992455;28;20035;-75
2023/06/26 01:47:03;;;;;;;1999.90;999.90;;;;;;;17.69;100.00;97970.00;4992048;28;20554;-77
2023/06/26 01:49:43;;;;;;;1999.90;999.90;;;;;;;17.58;100.00;97979.88;4992622;28;20034;-75
2023/06/26 01:52:19;;;;;;;1999.90;999.90;;;;;;;17.50;100.00;97973.25;4992253;28;20272;-73
2023/06/26 01:55:12;;;;;;;1999.90;999.90;;;;;;;17.45;100.00;97958.81;4992051;28;20772;-74
2023/06/26 01:57:39;;;;;;;1999.90;999.90;;;;;;;17.53;100.00;97963.47;4992087;28;20046;-76
2023/06/26 02:00:07;;;;;;;1999.90;999.90;;;;;;;17.47;100.00;97978.66;4992092;28;20472;-74
2023/06/26 02:02:34;;;;;;;1999.90;999.90;;;;;;;17.51;100.00;97974.06;4974484;28;20034;-76
2023/06/26 02:04:59;;;;;;;1999.90;999.90;;;;;;;17.47;100.00;97970.34;4992076;28;20447;-75
2023/06/26 02:07:25;;;;;;;1999.90;999.90;;;;;;;17.37;100.00;97973.53;4974385;28;20065;-76
2023/06/26 02:09:50;;;;;;;1999.90;999.90;;;;;;;17.42;100.00;97973.31;4996605;28;20094;-77
2023/06/26 02:12:15;;;;;;;1999.90;999.90;;;;;;;17.41;100.00;97966.19;4997607;28;20022;-75
2023/06/26 02:14:41;;;;;;;1999.90;999.90;;;;;;;17.33;100.00;97967.06;4991773;28;20030;-76
2023/06/26 02:17:08;;;;;;;1999.90;999.90;;;;;;;17.30;100.00;97964.97;4991891;28;20065;-76
2023/06/26 02:19:34;;;;;;;1999.90;999.90;;;;;;;17.36;100.00;97966.38;4991848;28;20025;-76
2023/06/26 02:21:59;;;;;;;1999.90;999.90;;;;;;;17.35;100.00;97964.78;4992008;28;20034;-76
2023/06/26 02:24:24;;;;;;;1999.90;999.90;;;;;;;17.32;100.00;97965.47;4991575;28;20016;-76
2023/06/26 02:26:50;;;;;;;1999.90;999.90;;;;;;;17.29;100.00;97964.16;4991461;28;20109;-76
2023/06/26 02:29:16;;;;;;;1999.90;999.90;;;;;;;17.35;100.00;97978.59;4991624;28;20033;-76
2023/06/26 02:31:42;;;;;;;1999.90;999.90;;;;;;;17.32;100.00;97971.78;4991671;28;20030;-76
2023/06/26 02:34:07;;;;;;;1999.90;999.90;;;;;;;17.36;100.00;97969.16;4991442;28;20030;-75
2023/06/26 02:36:33;;;;;;;1999.90;999.90;;;;;;;17.47;100.00;97971.16;4991225;28;20070;-75
2023/06/26 02:38:58;;;;;;;1999.90;999.90;;;;;;;17.43;100.00;97973.00;4991256;28;20092;-74
2023/06/26 02:41:23;;;;;;;1999.90;999.90;;;;;;;17.35;100.00;97959.25;4991623;28;20475;-74
2023/06/26 02:43:49;;;;;;;1999.90;999.90;;;;;;;17.45;100.00;97973.44;4991378;28;20026;-77
2023/06/26 02:46:14;;;;;;;1999.90;999.90;;;;;;;17.44;100.00;97971.84;4991273;28;20026;-76
2023/06/26 02:48:39;;;;;;;1999.90;999.90;;;;;;;17.54;100.00;97976.16;4991340;28;20030;-75
2023/06/26 02:51:07;;;;;;;1999.90;999.90;;;;;;;17.57;100.00;97981.03;4991768;28;20022;-74
2023/06/26 02:53:33;;;;;;;1999.90;999.90;;;;;;;17.54;100.00;97979.72;4991045;28;20037;-74
2023/06/26 02:55:58;;;;;;;1999.90;999.90;;;;;;;17.60;100.00;97977.59;4991381;28;20454;-75
2023/06/26 02:58:23;;;;;;;1999.90;999.90;;;;;;;17.77;100.00;97973.81;4991171;28;20026;-75
2023/06/26 03:00:48;;;;;;;1999.90;999.90;;;;;;;17.68;100.00;97973.91;4973428;28;20483;-74
2023/06/26 03:03:14;;;;;;;1999.90;999.90;;;;;;;17.53;100.00;97971.75;4973768;28;20038;-75
2023/06/26 03:05:39;;;;;;;1999.90;999.90;;;;;;;17.55;100.00;97970.31;4973624;28;20026;-76
2023/06/26 03:08:05;;;;;;;1999.90;999.90;;;;;;;17.32;100.00;97976.53;4973585;28;20069;-75
2023/06/26 03:10:30;;;;;;;1999.90;999.90;;;;;;;17.20;100.00;97970.94;4990901;28;20100;-75
2023/06/26 03:12:56;;;;;;;1999.90;999.90;;;;;;;17.20;100.00;97970.94;4991081;28;20026;-75
2023/06/26 03:15:21;;;;;;;1999.90;999.90;;;;;;;17.12;100.00;97978.94;4991098;28;20089;-76
2023/06/26 03:17:46;;;;;;;1999.90;999.90;;;;;;;17.02;100.00;97973.81;4991047;28;20027;-76
2023/06/26 03:20:11;;;;;;;1999.90;999.90;;;;;;;17.01;100.00;97969.44;4991376;28;20033;-75
2023/06/26 03:22:37;;;;;;;1999.90;999.90;;;;;;;16.93;100.00;97972.25;4991024;28;20584;-76
2023/06/26 03:25:03;;;;;;;1999.90;999.90;;;;;;;16.84;100.00;97974.28;4975643;28;20034;-75
2023/06/26 03:27:28;;;;;;;1999.90;999.90;;;;;;;16.86;100.00;97983.84;4994768;28;20034;-77
2023/06/26 03:29:53;;;;;;;1999.90;999.90;;;;;;;17.03;100.00;97983.75;4994888;28;20387;-75
2023/06/26 03:32:19;;;;;;;1999.90;999.90;;;;;;;17.35;100.00;97971.13;4995754;28;20023;-76
2023/06/26 03:34:44;;;;;;;1999.90;999.90;;;;;;;17.90;100.00;97981.00;4997502;28;20097;-77
2023/06/26 03:37:09;;;;;;;1999.90;999.90;;;;;;;18.36;100.00;97979.81;5010756;28;20094;-86
2023/06/26 03:39:35;;;;;;;1999.90;999.90;;;;;;;18.70;100.00;97982.16;5018151;28;20037;-86
2023/06/26 03:42:01;;;;;;;1999.90;999.90;;;;;;;18.97;100.00;97986.97;5015117;28;20061;-86
2023/06/26 03:44:27;;;;;;;1999.90;999.90;;;;;;;19.01;100.00;97965.72;4980277;28;20125;-87
2023/06/26 03:46:53;;;;;;;1999.90;999.90;;;;;;;19.38;100.00;97971.97;4996065;28;20034;-85
2023/06/26 03:49:20;;;;;;;1999.90;999.90;;;;;;;19.81;100.00;97998.97;4980348;28;20035;-86
2023/06/26 03:51:46;;;;;;;1999.90;999.90;;;;;;;20.01;100.00;97994.38;4997584;28;20026;-86
2023/06/26 03:54:11;;;;;;;1999.90;999.90;;;;;;;20.25;100.00;97986.69;4996886;28;20045;-88
2023/06/26 03:56:37;;;;;;;1999.90;999.90;;;;;;;20.67;100.00;97991.75;4978985;28;20039;-85
2023/06/26 03:59:02;;;;;;;1999.90;999.90;;;;;;;21.41;100.00;97999.03;4998564;28;20034;-85
2023/06/26 04:01:28;;;;;;;1999.90;999.90;;;;;;;21.68;100.00;97994.41;4996144;28;20110;-84
2023/06/26 04:03:54;;;;;;;1999.90;999.90;;;;;;;22.12;100.00;98000.47;4997249;28;20022;-87
2023/06/26 04:06:19;;;;;;;1999.90;999.90;;;;;;;22.46;96.24;98009.84;4997926;28;20023;-86
2023/06/26 04:08:52;;;;;;;1999.90;999.90;;;;;;;22.37;96.50;97991.38;4998623;28;20030;-85
2023/06/26 04:11:17;;;;;;;1999.90;999.90;;;;;;;21.80;100.00;97999.84;4982706;28;20019;-86
2023/06/26 04:13:43;;;;;;;1999.90;999.90;;;;;;;20.84;100.00;97971.88;4995851;28;20038;-86
2023/06/26 04:16:08;;;;;;;1999.90;999.90;;;;;;;21.55;100.00;98002.09;4981017;28;20042;-86
2023/06/26 04:18:33;;;;;;;1999.90;999.90;;;;;;;22.08;98.68;97994.84;4979991;28;20054;-83
2023/06/26 04:21:08;;;;;;;1999.90;999.90;;;;;;;23.08;90.12;98011.28;4980429;28;20031;-86
2023/06/26 04:23:34;;;;;;;1999.90;999.90;;;;;;;22.86;89.21;98007.38;4978344;28;20027;-86
2023/06/26 04:25:59;;;;;;;1999.90;999.90;;;;;;;23.24;87.09;98012.72;4996513;28;20039;-86
2023/06/26 04:28:25;;;;;;;1999.90;999.90;;;;;;;22.38;93.12;98006.13;4977518;28;20041;-84
2023/06/26 04:30:51;;;;;;;1999.90;999.90;;;;;;;21.51;99.82;98006.81;4993213;28;20054;-84
2023/06/26 04:33:17;;;;;;;1999.90;999.90;;;;;;;20.40;100.00;97978.72;4993725;28;20119;-85
2023/06/26 04:35:48;;;;;;;1999.90;999.90;;;;;;;20.07;100.00;97990.16;4975240;28;20027;-84
2023/06/26 04:38:15;;;;;;;1999.90;999.90;;;;;;;19.94;100.00;97983.88;4981442;28;20086;-78
2023/06/26 04:40:40;;;;;;;1999.90;999.90;;;;;;;19.86;100.00;97990.38;4974516;28;20510;-77
2023/06/26 04:43:05;;;;;;;1999.90;999.90;;;;;;;19.69;100.00;97988.75;4974446;28;20023;-75
2023/06/26 04:45:31;;;;;;;1999.90;999.90;;;;;;;19.73;100.00;97989.63;4973988;28;20073;-79
2023/06/26 04:47:56;;;;;;;1999.90;999.90;;;;;;;19.84;100.00;97998.28;4974918;28;20068;-76
2023/06/26 04:50:22;;;;;;;1999.90;999.90;;;;;;;20.12;100.00;97993.47;4978010;28;20049;-78
2023/06/26 04:52:47;;;;;;;1999.90;999.90;;;;;;;19.74;100.00;97999.59;4975136;28;20033;-78
2023/06/26 04:55:13;;;;;;;1999.90;999.90;;;;;;;19.34;100.00;97992.44;4974750;28;20022;-79
2023/06/26 04:57:38;;;;;;;1999.90;999.90;;;;;;;19.52;100.00;97996.56;4973943;28;20058;-77
2023/06/26 05:00:10;;;;;;;1999.90;999.90;;;;;;;19.82;100.00;97995.06;4974119;28;20031;-79
2023/06/26 05:02:36;;;;;;;1999.90;999.90;;;;;;;19.98;100.00;98003.41;4956609;28;20035;-79
2023/06/26 05:05:01;;;;;;;1999.90;999.90;;;;;;;19.99;100.00;97999.44;4973871;28;20085;-79
2023/06/26 05:07:26;;;;;;;1999.90;999.90;;;;;;;20.23;100.00;97991.00;4974805;28;20071;-80
2023/06/26 05:09:52;;;;;;;1999.90;999.90;;;;;;;19.94;100.00;97996.94;4974609;28;20037;-78
2023/06/26 05:12:17;;;;;;;1999.90;999.90;;;;;;;19.92;100.00;97993.72;4973914;28;20011;-78
2023/06/26 05:14:43;;;;;;;1999.90;999.90;;;;;;;20.26;100.00;98004.19;4973636;28;20031;-78
2023/06/26 05:17:08;;;;;;;1999.90;999.90;;;;;;;20.56;100.00;97990.66;4973703;28;20430;-79
2023/06/26 05:19:33;;;;;;;1999.90;999.90;;;;;;;20.90;100.00;97989.06;4979514;28;20080;-79
2023/06/26 05:22:03;;;;;;;1999.90;999.90;;;;;;;20.99;100.00;97998.84;4992561;28;20035;-75
2023/06/26 05:24:30;;;;;;;1999.90;999.90;;;;;;;21.04;100.00;97984.66;4992009;28;20068;-75
2023/06/26 05:26:55;;;;;;;1999.90;999.90;;;;;;;20.86;100.00;97989.03;4992142;28;20041;-75
2023/06/26 05:29:21;;;;;;;1999.90;999.90;;;;;;;21.17;100.00;97988.16;4992319;28;20019;-75
2023/06/26 05:31:49;;;;;;;1999.90;999.90;;;;;;;20.86;100.00;97993.78;4991757;28;20489;-76
2023/06/26 05:34:16;;;;;;;1999.90;999.90;;;;;;;21.35;100.00;97995.72;4992280;28;20026;-76
2023/06/26 05:36:42;;;;;;;1999.90;999.90;;;;;;;21.26;100.00;98003.47;4992446;28;20042;-75
2023/06/26 05:39:07;;;;;;;1999.90;999.90;;;;;;;20.83;100.00;97984.19;4992242;28;20030;-76
2023/06/26 05:41:33;;;;;;;1999.90;999.90;;;;;;;20.83;100.00;98001.66;4992229;28;20022;-76
2023/06/26 05:43:58;;;;;;;1999.90;999.90;;;;;;;20.53;100.00;97997.75;4992006;28;20065;-75
2023/06/26 05:46:24;;;;;;;1999.90;999.90;;;;;;;20.64;100.00;97998.03;4992164;28;20542;-75
2023/06/26 05:48:49;;;;;;;1999.90;999.90;;;;;;;21.11;100.00;98001.53;4991793;28;20080;-77
2023/06/26 05:51:14;;;;;;;1999.90;999.90;;;;;;;21.47;99.51;97992.00;4992438;28;20030;-75
2023/06/26 05:53:40;;;;;;;1999.90;999.90;;;;;;;21.48;99.45;97995.59;4992089;28;20035;-76
2023/06/26 05:56:06;;;;;;;1999.90;999.90;;;;;;;21.67;98.06;98006.72;4992300;28;20084;-76
2023/06/26 05:58:32;;;;;;;1999.90;999.90;;;;;;;21.83;96.38;98001.88;4992318;28;20041;-77
2023/06/26 06:00:58;;;;;;;1999.90;999.90;;;;;;;21.70;96.14;98000.44;4991958;28;20026;-77
2023/06/26 06:03:23;;;;;;;1999.90;999.90;;;;;;;21.90;96.56;97999.25;4992313;28;20026;-75
2023/06/26 06:05:48;;;;;;;1999.90;999.90;;;;;;;21.82;94.75;98003.06;4992072;28;20030;-75
2023/06/26 06:08:14;;;;;;;1999.90;999.90;;;;;;;21.54;97.17;97999.69;4996835;28;20042;-75
2023/06/26 06:10:39;;;;;;;1999.90;999.90;;;;;;;21.34;99.34;98001.66;4999660;28;20109;-76
2023/06/26 06:13:04;;;;;;;1999.90;999.90;;;;;;;21.98;95.78;97991.84;4994632;28;20033;-75
2023/06/26 06:15:29;;;;;;;1999.90;999.90;;;;;;;21.75;95.36;97997.34;5003861;28;20046;-75
2023/06/26 06:17:55;;;;;;;1999.90;999.90;;;;;;;21.79;95.76;97993.47;5002588;28;20088;-76
2023/06/26 06:20:21;;;;;;;1999.90;999.90;;;;;;;21.95;94.95;97990.63;5001922;28;20034;-76
2023/06/26 06:22:48;;;;;;;1999.90;999.90;;;;;;;22.32;91.25;97986.13;5010252;28;20034;-77
2023/06/26 06:25:13;;;;;;;1999.90;999.90;;;;;;;22.43;91.01;97992.69;5008969;28;20042;-76
2023/06/26 06:27:39;;;;;;;1999.90;999.90;;;;;;;22.69;88.82;97996.72;4999265;28;20022;-76
2023/06/26 06:30:05;;;;;;;1999.90;999.90;;;;;;;22.93;84.81;98002.69;5000584;28;20051;-76
2023/06/26 06:32:30;;;;;;;1999.90;999.90;;;;;;;23.53;81.97;98007.56;4993335;28;20026;-76
2023/06/26 06:34:55;;;;;;;1999.90;999.90;;;;;;;23.92;78.29;98012.47;4991578;28;20386;-75
2023/06/26 06:37:20;;;;;;;1999.90;999.90;;;;;;;24.18;76.34;98006.00;4991476;28;20947;-76
2023/06/26 06:39:46;;;;;;;1999.90;999.90;;;;;;;23.95;76.78;98005.28;4977472;28;20141;-77
2023/06/26 06:42:11;;;;;;;1999.90;999.90;;;;;;;23.79;77.54;98005.50;4972246;28;20038;-76
2023/06/26 06:44:36;;;;;;;1999.90;999.90;;;;;;;23.28;80.76;98002.41;4999059;28;20033;-75
2023/06/26 06:47:02;;;;;;;1999.90;999.90;;;;;;;23.49;80.47;97990.78;4996330;28;20093;-78
2023/06/26 06:49:27;;;;;;;1999.90;999.90;;;;;;;23.48;81.43;97994.75;4995630;28;20022;-80
2023/06/26 06:51:52;;;;;;;1999.90;999.90;;;;;;;22.95;82.66;97996.75;4995280;28;20027;-76
2023/06/26 06:54:18;;;;;;;1999.90;999.90;;;;;;;23.29;81.26;97992.06;5001021;28;20033;-75
2023/06/26 06:56:43;;;;;;;1999.90;999.90;;;;;;;23.11;81.05;97991.00;4996180;28;20061;-76
2023/06/26 06:59:09;;;;;;;1999.90;999.90;;;;;;;23.17;80.13;97978.31;4991009;28;20117;-77
2023/06/26 07:01:34;;;;;;;1999.90;999.90;;;;;;;23.54;78.01;97987.63;4973653;28;20057;-77
2023/06/26 07:03:59;;;;;;;1999.90;999.90;;;;;;;23.74;77.39;97982.69;4991318;28;20423;-77
2023/06/26 07:06:25;;;;;;;1999.90;999.90;;;;;;;23.86;77.41;97988.84;4991213;28;20049;-76
2023/06/26 07:08:51;;;;;;;1999.90;999.90;;;;;;;24.06;75.20;97986.63;4991060;28;20093;-76
2023/06/26 07:11:16;;;;;;;1999.90;999.90;;;;;;;23.95;75.24;98000.50;4991317;28;20044;-82
2023/06/26 07:13:41;;;;;;;1999.90;999.90;;;;;;;23.75;75.91;97987.09;4989410;28;20034;-83
2023/06/26 07:16:07;;;;;;;1999.90;999.90;;;;;;;24.01;74.93;97984.19;5003273;28;20085;-79
2023/06/26 07:18:32;;;;;;;1999.90;999.90;;;;;;;24.42;74.38;97988.66;4997277;28;20027;-79
2023/06/26 07:20:58;;;;;;;1999.90;999.90;;;;;;;25.02;72.61;97982.75;5004148;28;20027;-84
2023/06/26 07:23:23;;;;;;;1999.90;999.90;;;;;;;25.24;68.74;97990.09;5008322;28;20026;-82
2023/06/26 07:25:48;;;;;;;1999.90;999.90;;;;;;;24.56;69.68;97987.94;5002996;28;20031;-81
2023/06/26 07:28:14;;;;;;;1999.90;999.90;;;;;;;24.95;69.63;97982.69;4993951;28;20061;-77
2023/06/26 07:30:39;;;;;;;1999.90;999.90;;;;;;;25.06;68.38;97983.56;4977276;28;20034;-80
2023/06/26 07:33:05;;;;;;;1999.90;999.90;;;;;;;25.15;67.82;97981.25;4991672;28;20089;-78
2023/06/26 07:35:30;;;;;;;1999.90;999.90;;;;;;;25.54;66.36;97982.28;4991764;28;20109;-80
2023/06/26 07:37:56;;;;;;;1999.90;999.90;;;;;;;26.18;63.90;97979.72;5007563;28;20142;-83
2023/06/26 07:40:21;;;;;;;1999.90;999.90;;;;;;;26.50;63.56;97977.75;5010693;28;20068;-84
2023/06/26 07:42:46;;;;;;;1999.90;999.90;;;;;;;26.72;60.88;97984.19;5006392;28;20019;-84
2023/06/26 07:45:12;;;;;;;1999.90;999.90;;;;;;;26.89;58.88;97988.22;5006897;28;20057;-85
2023/06/26 07:47:38;;;;;;;1999.90;999.90;;;;;;;26.81;58.70;97981.03;5008263;28;20351;-82
2023/06/26 07:50:04;;;;;;;1999.90;999.90;;;;;;;26.53;60.24;97988.19;5003397;28;20057;-83
2023/06/26 07:52:32;;;;;;;1999.90;999.90;;;;;;;26.45;58.59;97992.19;5005500;28;20401;-82
2023/06/26 07:54:58;;;;;;;1999.90;999.90;;;;;;;26.45;59.47;97986.59;5005552;28;20026;-80
2023/06/26 07:57:23;;;;;;;1999.90;999.90;;;;;;;26.61;59.58;97986.19;5001495;28;20090;-78
2023/06/26 07:59:48;;;;;;;1999.90;999.90;;;;;;;26.63;59.03;97981.78;5008999;28;20041;-83
2023/06/26 08:02:13;;;;;;;1999.90;999.90;;;;;;;26.88;57.60;97981.78;5016324;28;20050;-84
2023/06/26 08:04:39;;;;;;;1999.90;999.90;;;;;;;27.18;55.60;97984.19;5013507;28;20061;-81
2023/06/26 08:07:05;;;;;;;1999.90;999.90;;;;;;;27.01;55.38;97982.19;5030330;28;20026;-80
2023/06/26 08:09:30;;;;;;;1999.90;999.90;;;;;;;26.94;54.52;97977.38;5029750;28;20037;-84
2023/06/26 08:11:56;;;;;;;1999.90;999.90;;;;;;;27.29;56.03;97984.13;5029459;28;20034;-84
2023/06/26 08:14:23;;;;;;;1999.90;999.90;;;;;;;27.83;52.42;97986.41;5032624;28;20028;-84
2023/06/26 08:16:48;;;;;;;1999.90;999.90;;;;;;;27.49;53.88;97977.72;5033374;28;20022;-85
2023/06/26 08:19:15;;;;;;;1999.90;999.90;;;;;;;27.60;53.90;97977.66;5031339;28;20040;-82
2023/06/26 08:21:41;;;;;;;1999.90;999.90;;;;;;;27.62;53.07;97981.69;5034942;28;20472;-84
2023/06/26 08:24:07;;;;;;;1999.90;999.90;;;;;;;27.78;53.61;97977.59;5034304;28;20021;-84
2023/06/26 08:26:34;;;;;;;1999.90;999.90;;;;;;;27.73;52.12;97980.81;5021745;28;20030;-79
2023/06/26 08:29:00;;;;;;;1999.90;999.90;;;;;;;28.01;51.14;97978.69;5015644;28;20038;-84
2023/06/26 08:31:25;;;;;;;1999.90;999.90;;;;;;;28.38;50.24;97975.25;5007996;28;20498;-82
2023/06/26 08:33:50;;;;;;;1999.90;999.90;;;;;;;27.69;51.39;97963.19;4984431;28;20553;-74
2023/06/26 08:36:16;;;;;;;1999.90;999.90;;;;;;;27.32;51.44;97967.28;4993452;28;20479;-74
2023/06/26 08:38:41;;;;;;;1999.90;999.90;;;;;;;27.35;50.55;97968.47;4993422;28;20053;-76
2023/06/26 08:41:07;;;;;;;1999.90;999.90;;;;;;;27.54;50.60;97973.66;4993576;28;20100;-75
2023/06/26 08:43:34;;;;;;;1999.90;999.90;;;;;;;27.51;50.47;97969.66;4993366;28;20088;-77
2023/06/26 08:46:00;;;;;;;1999.90;999.90;;;;;;;27.34;50.71;97970.50;4993311;28;20028;-75
2023/06/26 08:48:25;;;;;;;1999.90;999.90;;;;;;;27.69;49.58;97963.19;4994011;28;20034;-74
2023/06/26 08:50:53;;;;;;;1999.90;999.90;;;;;;;28.23;48.12;97970.94;5002258;28;20094;-74
2023/06/26 08:53:30;;;;;;;1999.90;999.90;;;;;;;28.60;47.60;97962.63;5004113;28;20015;-75
2023/06/26 08:55:58;;;;;;;1999.90;999.90;;;;;;;28.30;47.65;97959.63;5001722;28;20386;-75
2023/06/26 08:58:23;;;;;;;1999.90;999.90;;;;;;;28.90;45.95;97955.56;4999010;28;20058;-74
2023/06/26 09:00:50;;;;;;;1999.90;999.90;;;;;;;28.70;45.86;97956.13;5012764;28;20446;-75
2023/06/26 09:03:16;;;;;;;1999.90;999.90;;;;;;;28.72;45.64;97952.13;4997695;28;20022;-76
2023/06/26 09:05:42;;;;;;;1999.90;999.90;;;;;;;28.23;45.85;97947.63;5018623;28;20048;-79
2023/06/26 09:08:07;;;;;;;1999.90;999.90;;;;;;;28.26;46.36;97946.78;5018576;28;20103;-75
2023/06/26 09:10:33;;;;;;;1999.90;999.90;;;;;;;28.91;45.30;97948.72;5014549;28;20033;-75
2023/06/26 09:13:00;;;;;;;1999.90;999.90;;;;;;;28.89;45.77;97945.50;5014118;28;20038;-79
2023/06/26 09:15:26;;;;;;;1999.90;999.90;;;;;;;29.52;44.93;97947.69;5013820;28;20030;-74
2023/06/26 09:17:57;;;;;;;1999.90;999.90;;;;;;;29.22;44.74;97953.25;5012300;28;20049;-74
2023/06/26 09:20:22;;;;;;;1999.90;999.90;;;;;;;29.42;45.14;97950.63;5012420;28;20030;-75
2023/06/26 09:22:48;;;;;;;1999.90;999.90;;;;;;;29.28;41.09;97947.97;5009754;28;20033;-75
2023/06/26 09:25:13;;;;;;;1999.90;999.90;;;;;;;28.72;41.13;97941.66;4993907;28;20391;-73
2023/06/26 09:27:39;;;;;;;1999.90;999.90;;;;;;;28.27;42.51;97932.31;5015572;28;20040;-77
2023/06/26 09:30:09;;;;;;;1999.90;999.90;;;;;;;28.59;42.36;97932.88;5012803;28;20069;-73
2023/06/26 09:32:37;;;;;;;1999.90;999.90;;;;;;;27.46;45.77;97933.56;5012093;28;20034;-74
2023/06/26 09:35:04;;;;;;;1999.90;999.90;;;;;;;28.04;44.39;97940.47;5011112;28;20037;-73
2023/06/26 09:37:29;;;;;;;1999.90;999.90;;;;;;;28.50;43.20;97935.38;5010772;28;20517;-75
2023/06/26 09:39:55;;;;;;;1999.90;999.90;;;;;;;28.73;41.92;97933.97;4996142;28;20027;-72
2023/06/26 09:42:20;;;;;;;1999.90;999.90;;;;;;;28.61;42.56;97935.28;4992618;28;20030;-72
2023/06/26 09:44:47;;;;;;;1999.90;999.90;;;;;;;28.49;42.98;97927.34;4991095;28;20364;-73
2023/06/26 09:47:16;;;;;;;1999.90;999.90;;;;;;;29.07;43.28;97920.78;5000747;28;20026;-74
2023/06/26 09:49:42;;;;;;;1999.90;999.90;;;;;;;29.49;42.58;97925.97;4991729;28;20031;-74
2023/06/26 09:52:08;;;;;;;1999.90;999.90;;;;;;;29.13;43.31;97924.75;4991652;28;20019;-75
2023/06/26 09:54:35;;;;;;;1999.90;999.90;;;;;;;29.05;44.10;97920.41;4991607;28;20026;-75
2023/06/26 09:57:11;;;;;;;1999.90;999.90;;;;;;;29.34;43.51;97920.91;4992478;28;20010;-76
2023/06/26 09:59:37;;;;;;;1999.90;999.90;;;;;;;28.93;45.02;97907.66;5011237;28;20030;-76
2023/06/26 10:02:02;;;;;;;1999.90;999.90;;;;;;;28.22;45.59;97904.63;4994419;28;20038;-73
2023/06/26 10:04:28;;;;;;;1999.90;999.90;;;;;;;28.81;44.17;97910.19;4991525;28;20022;-76
2023/06/26 10:06:59;;;;;;;1999.90;999.90;;;;;;;29.04;44.60;97904.72;4991430;28;20020;-78
2023/06/26 10:09:24;;;;;;;1999.90;999.90;;;;;;;28.90;44.53;97913.31;4991198;28;20089;-73
2023/06/26 10:12:01;;;;;;;1999.90;999.90;;;;;;;28.99;43.49;97916.44;4990189;28;20035;-73
2023/06/26 10:14:31;;;;;;;1999.90;999.90;;;;;;;28.94;43.90;97908.44;4976143;28;20493;-74
2023/06/26 10:16:59;;;;;;;1999.90;999.90;;;;;;;29.73;42.91;97907.91;4991071;28;20033;-75
2023/06/26 10:19:27;;;;;;;1999.90;999.90;;;;;;;29.97;42.06;97906.03;4974348;28;20034;-75
2023/06/26 10:21:56;;;;;;;1999.90;999.90;;;;;;;29.75;43.33;97901.88;4996787;28;20030;-77
2023/06/26 10:24:23;;;;;;;1999.90;999.90;;;;;;;29.57;44.67;97898.50;4975204;28;20053;-73
2023/06/26 10:26:54;;;;;;;1999.90;999.90;;;;;;;29.43;44.54;97895.84;4991367;28;20034;-75
2023/06/26 10:29:21;;;;;;;1999.90;999.90;;;;;;;28.85;45.66;97891.25;4990988;28;20030;-77
2023/06/26 10:31:51;;;;;;;1999.90;999.90;;;;;;;29.16;45.25;97887.28;4991677;28;20034;-79
2023/06/26 10:34:17;;;;;;;1999.90;999.90;;;;;;;29.40;45.41;97891.84;4994484;28;20018;-77
2023/06/26 10:36:42;;;;;;;1999.90;999.90;;;;;;;29.25;46.48;97886.81;4992844;28;20034;-76
2023/06/26 10:39:08;;;;;;;1999.90;999.90;;;;;;;29.67;45.95;97887.06;4986972;28;20388;-79
2023/06/26 10:41:39;;;;;;;1999.90;999.90;;;;;;;30.15;45.21;97875.50;4984627;28;20054;-76
2023/06/26 10:44:16;;;;;;;1999.90;999.90;;;;;;;29.03;47.01;97884.19;4991598;28;20030;-78
2023/06/26 10:46:48;;;;;;;1999.90;999.90;;;;;;;28.76;47.71;97882.47;4991972;28;20459;-78